createdAt,value
2022-11-15T07:25:43.625Z,6.22
2022-11-15T07:28:29.372Z,2.50
2022-11-15T07:34:00.005Z,8.88
2022-11-15T07:39:30.132Z,5.18
2022-11-15T07:42:34.508Z,4.60
2022-11-15T07:45:21.551Z,4.00
2022-11-15T07:48:06.991Z,2.30
2022-11-15T07:50:52.988Z,3.70
2022-11-15T07:53:37.879Z,3.90
2022-11-15T07:56:23.045Z,2.15
2022-11-15T07:59:08.120Z,4.90
2022-11-15T08:01:53.450Z,5.55
2022-11-15T08:04:38.678Z,4.20
2022-11-15T08:07:24.252Z,3.72
2022-11-15T08:10:09.726Z,2.60
2022-11-15T08:15:44.712Z,2.53
2022-11-15T08:18:29.709Z,5.15
2022-11-15T08:21:19.529Z,3.20
2022-11-15T08:24:05.617Z,4.18
2022-11-15T08:26:51.148Z,3.00
2022-11-15T08:29:36.934Z,2.67
2022-11-15T08:32:22.189Z,3.47
2022-11-15T08:35:07.599Z,2.95
2022-11-15T08:37:56.473Z,2.28
2022-11-15T08:40:42.231Z,3.40
2022-11-15T08:43:27.918Z,2.42
2022-11-15T08:46:14.219Z,3.55
2022-11-15T08:48:59.222Z,2.53
2022-11-15T08:51:44.693Z,1.77
2022-11-15T08:54:29.809Z,2.38
2022-11-15T08:57:14.765Z,2.25
2022-11-15T09:00:01.804Z,3.63
2022-11-15T09:02:47.079Z,6.13
2022-11-15T09:05:32.623Z,1.80
2022-11-15T09:08:46.980Z,2.45
2022-11-15T09:11:24.238Z,2.23
2022-11-15T09:14:13.123Z,1.67
2022-11-15T09:16:59.198Z,1.95
2022-11-15T09:19:44.402Z,2.28
2022-11-15T09:22:29.630Z,3.47
2022-11-15T09:25:14.960Z,2.05
2022-11-15T09:28:02.034Z,2.78
2022-11-15T09:30:46.963Z,3.95
2022-11-15T09:33:32.347Z,4.15
2022-11-15T09:36:17.818Z,1.75
2022-11-15T09:41:53.321Z,2.58
2022-11-15T09:44:48.773Z,2.22
2022-11-15T09:48:06.687Z,1.92
2022-11-15T09:51:01.216Z,1.77
2022-11-15T09:54:13.592Z,1.20
2022-11-15T09:56:24.156Z,1.42
2022-11-15T09:59:38.389Z,1.95
2022-11-15T10:02:16.899Z,3.10
2022-11-15T10:04:43.537Z,2.28
2022-11-15T10:07:16.331Z,2.35
2022-11-15T10:09:54.105Z,2.15
2022-11-15T10:12:20.747Z,1.48
2022-11-15T10:14:54.207Z,2.20
2022-11-15T10:17:35.017Z,1.83
2022-11-15T10:20:30.192Z,2.92
2022-11-15T10:23:01.399Z,2.50
2022-11-15T10:25:33.433Z,2.22
2022-11-15T10:28:07.893Z,1.98
2022-11-15T10:33:12.273Z,1.60
2022-11-15T10:35:39.085Z,1.92
2022-11-15T10:38:10.878Z,1.98
2022-11-15T10:40:39.466Z,1.85
2022-11-15T10:43:16.614Z,2.25
2022-11-15T10:45:44.261Z,3.47
2022-11-15T10:48:13.820Z,1.60
2022-11-15T10:50:43.499Z,2.78
2022-11-15T10:55:18.059Z,1.98
2022-11-15T10:57:52.031Z,1.45
2022-11-15T11:00:20.104Z,1.60
2022-11-15T11:02:58.655Z,1.63
2022-11-15T11:05:41.726Z,1.42
2022-11-15T11:08:15.574Z,2.17
2022-11-15T11:11:03.627Z,2.08
2022-11-15T11:13:33.035Z,1.65
2022-11-15T11:16:15.208Z,2.00
2022-11-15T11:18:45.064Z,1.88
2022-11-15T11:21:15.891Z,2.05
2022-11-15T11:24:11.999Z,0.85
2022-11-15T11:26:46.527Z,1.63
2022-11-15T11:29:16.539Z,1.48
2022-11-15T11:31:51.470Z,1.88
2022-11-15T11:34:30.140Z,2.78
2022-11-15T11:37:05.003Z,1.40
2022-11-15T11:42:31.319Z,1.38
2022-11-15T11:45:25.244Z,2.03
2022-11-15T11:48:15.857Z,1.25
2022-11-15T11:50:43.728Z,2.50
2022-11-15T11:53:16.315Z,1.30
2022-11-15T11:55:48.857Z,1.48
2022-11-15T11:58:22.069Z,1.52
2022-11-15T12:01:35.945Z,1.38
2022-11-15T12:04:11.718Z,1.13
2022-11-15T12:06:43.537Z,1.23
2022-11-15T12:09:31.742Z,0.93
2022-11-15T12:12:07.845Z,2.10
2022-11-15T12:14:43.245Z,1.35
2022-11-15T12:17:12.113Z,1.42
2022-11-15T12:19:39.895Z,2.33
2022-11-15T12:22:12.873Z,1.77
2022-11-15T12:24:43.548Z,1.48
2022-11-15T12:27:28.353Z,1.05
2022-11-15T12:30:01.100Z,1.70
2022-11-15T12:32:35.760Z,2.05
2022-11-15T12:35:04.529Z,1.70
2022-11-15T12:37:38.571Z,1.63
2022-11-15T12:40:20.682Z,2.72
2022-11-15T12:43:26.203Z,1.50
2022-11-15T12:45:53.285Z,1.42
2022-11-15T12:48:19.739Z,1.15
2022-11-15T12:50:58.975Z,1.33
2022-11-15T12:53:25.543Z,3.95
2022-11-15T12:56:24.353Z,2.53
2022-11-15T12:58:55.145Z,1.77
2022-11-15T13:01:37.001Z,1.48
2022-11-15T13:04:27.719Z,1.90
2022-11-15T13:06:58.700Z,1.23
2022-11-15T13:09:34.499Z,1.63
2022-11-15T13:12:03.083Z,1.65
2022-11-15T13:14:40.281Z,0.98
2022-11-15T13:17:30.796Z,1.63
2022-11-15T13:20:16.685Z,1.15
2022-11-15T13:22:52.664Z,1.48
2022-11-15T13:25:33.482Z,0.80
2022-11-15T13:28:07.640Z,1.23
2022-11-15T13:30:34.636Z,1.30
2022-11-15T13:33:09.580Z,1.48
2022-11-15T13:35:39.986Z,1.40
2022-11-15T13:38:07.056Z,1.23
2022-11-15T13:40:37.881Z,1.90
2022-11-15T13:43:22.422Z,3.47
2022-11-15T13:46:08.227Z,2.05
2022-11-15T13:48:35.234Z,3.75
2022-11-15T13:51:04.305Z,2.03
2022-11-15T13:53:33.587Z,1.13
2022-11-15T13:56:00.607Z,1.80
2022-11-15T13:58:27.233Z,1.30
2022-11-15T14:01:02.979Z,1.08
2022-11-15T14:03:32.085Z,1.45
2022-11-15T14:06:12.770Z,2.30
2022-11-15T14:08:57.898Z,1.10
2022-11-15T14:11:24.718Z,1.40
2022-11-15T14:14:13.108Z,1.05
2022-11-15T14:16:44.805Z,2.83
2022-11-15T14:19:14.151Z,2.75
2022-11-15T14:22:09.785Z,1.38
2022-11-15T14:24:37.296Z,1.92
2022-11-15T14:27:33.494Z,1.48
2022-11-15T14:30:00.635Z,1.42
2022-11-15T14:32:29.645Z,1.13
2022-11-15T14:34:59.299Z,1.35
2022-11-15T14:37:35.664Z,1.80
2022-11-15T14:40:04.792Z,2.10
2022-11-15T14:42:31.532Z,2.08
2022-11-15T14:44:58.654Z,1.05
2022-11-15T14:47:25.308Z,1.40
2022-11-15T14:49:52.577Z,1.08
2022-11-15T14:52:32.969Z,1.33
2022-11-15T14:55:02.488Z,0.98
2022-11-15T14:57:29.798Z,0.93
2022-11-15T14:59:56.528Z,1.38
2022-11-15T15:02:27.984Z,0.85
2022-11-15T15:04:55.043Z,0.95
2022-11-15T15:07:22.757Z,1.58
2022-11-15T15:09:50.219Z,1.20
2022-11-15T15:12:23.452Z,1.30
2022-11-15T15:14:51.152Z,1.52
2022-11-15T15:17:18.794Z,1.10
2022-11-15T15:19:45.432Z,1.40
2022-11-15T15:22:15.560Z,1.15
2022-11-15T15:24:43.515Z,1.15
2022-11-15T15:27:10.635Z,1.20
2022-11-15T15:29:37.425Z,1.27
2022-11-15T15:32:04.157Z,1.40
2022-11-15T15:34:31.065Z,1.27
2022-11-15T15:37:26.239Z,0.98
2022-11-15T15:39:54.937Z,1.27
2022-11-15T15:42:22.009Z,0.80
2022-11-15T15:44:49.124Z,1.15
2022-11-15T15:47:18.853Z,0.90
2022-11-15T15:49:45.472Z,1.10
2022-11-15T15:52:12.563Z,1.40
2022-11-15T15:54:41.054Z,1.33
2022-11-15T15:57:09.133Z,2.53
2022-11-15T15:59:36.061Z,1.20
2022-11-15T16:02:02.756Z,3.92
2022-11-15T16:04:29.701Z,2.03
2022-11-15T16:07:00.921Z,1.90
2022-11-15T16:09:46.778Z,1.58
2022-11-15T16:12:13.341Z,4.25
2022-11-15T16:14:39.919Z,1.58
2022-11-15T16:17:07.280Z,2.22
2022-11-15T16:19:33.859Z,3.33
2022-11-15T16:22:00.428Z,2.75
2022-11-15T16:24:27.007Z,1.40
2022-11-15T16:26:53.617Z,1.48
2022-11-15T16:29:20.245Z,1.55
2022-11-15T16:31:47.295Z,2.03
2022-11-15T16:34:13.882Z,1.90
2022-11-15T16:36:40.549Z,2.70
2022-11-15T16:39:07.520Z,2.05
2022-11-15T16:41:34.266Z,2.10
2022-11-15T16:44:01.445Z,2.47
2022-11-15T16:46:29.945Z,3.00
2022-11-15T16:48:56.994Z,1.75
2022-11-15T16:51:23.908Z,1.95
2022-11-15T17:00:54.324Z,3.67
2022-11-15T17:03:22.566Z,3.05
2022-11-15T17:05:49.729Z,2.75
2022-11-15T17:08:16.433Z,2.78
2022-11-15T17:10:43.089Z,3.45
2022-11-15T17:13:13.201Z,2.72
2022-11-15T17:15:40.706Z,2.47
2022-11-15T17:18:07.415Z,2.47
2022-11-15T17:20:34.070Z,4.03
2022-11-15T17:23:01.319Z,3.03
2022-11-15T17:25:28.038Z,2.90
2022-11-15T17:27:56.244Z,2.90
2022-11-15T17:30:22.785Z,4.00
2022-11-15T17:32:49.749Z,2.38
2022-11-15T17:35:16.519Z,3.88
2022-11-15T17:37:43.639Z,3.78
2022-11-15T17:40:10.782Z,4.60
2022-11-15T17:42:37.474Z,3.08
2022-11-15T17:45:09.608Z,2.70
2022-11-15T17:47:37.407Z,4.22
2022-11-15T17:50:04.467Z,1.95
2022-11-15T17:52:33.256Z,2.65
2022-11-15T17:55:02.141Z,2.80
2022-11-15T17:57:28.781Z,2.45
2022-11-15T17:59:55.402Z,2.78
2022-11-15T18:02:22.049Z,2.42
2022-11-15T18:04:48.613Z,2.85
2022-11-15T18:07:15.631Z,1.60
2022-11-15T18:09:44.124Z,2.38
2022-11-15T18:12:11.932Z,2.20
2022-11-15T18:14:39.046Z,2.97
2022-11-15T18:17:06.010Z,2.90
2022-11-15T18:19:32.583Z,2.20
2022-11-15T18:22:00.794Z,1.98
2022-11-15T18:24:33.714Z,2.22
2022-11-15T18:27:01.534Z,3.30
2022-11-15T18:29:28.417Z,3.38
2022-11-15T18:31:55.642Z,2.70
2022-11-15T18:34:23.893Z,2.50
2022-11-15T18:36:52.346Z,2.13
2022-11-15T18:39:19.520Z,1.40
2022-11-15T18:41:49.047Z,2.58
2022-11-15T18:44:15.980Z,2.22
2022-11-15T18:46:44.885Z,2.55
2022-11-15T18:49:13.136Z,2.85
2022-11-15T18:51:41.991Z,4.43
2022-11-15T18:54:11.371Z,1.70
2022-11-15T18:56:38.935Z,1.98
2022-11-15T18:59:06.287Z,3.35
2022-11-15T19:01:35.724Z,3.45
2022-11-15T19:04:10.320Z,3.63
2022-11-15T19:06:41.537Z,2.70
2022-11-15T19:09:09.201Z,2.83
2022-11-15T19:11:37.739Z,3.03
2022-11-15T19:14:12.509Z,2.75
2022-11-15T19:16:41.627Z,4.10
2022-11-15T19:19:12.691Z,2.90
2022-11-15T19:21:39.449Z,2.28
2022-11-15T19:24:06.403Z,2.35
2022-11-15T19:26:33.405Z,3.33
2022-11-15T19:29:01.271Z,2.58
2022-11-15T19:31:29.981Z,4.00
2022-11-15T19:33:58.948Z,2.95
2022-11-15T19:36:37.298Z,4.32
2022-11-15T19:39:08.277Z,2.92
2022-11-15T19:41:36.203Z,4.97
2022-11-15T19:44:02.860Z,3.45
2022-11-15T19:46:29.642Z,3.33
2022-11-15T19:48:56.230Z,2.35
2022-11-15T19:51:25.222Z,2.47
2022-11-15T19:53:53.217Z,5.13
2022-11-15T19:56:20.404Z,2.03
2022-11-15T19:58:51.653Z,2.72
2022-11-15T20:01:27.258Z,3.20
2022-11-15T20:06:31.166Z,3.17
2022-11-15T20:08:58.095Z,4.93
2022-11-15T20:11:25.858Z,4.93
2022-11-15T20:13:57.138Z,3.03
2022-11-15T20:16:23.917Z,2.20
2022-11-15T20:18:51.510Z,3.92
2022-11-15T20:21:19.076Z,3.70
2022-11-15T20:23:47.589Z,2.65
2022-11-15T20:26:15.131Z,2.47
2022-11-15T20:28:44.356Z,3.85
2022-11-15T20:31:11.520Z,4.38
2022-11-15T20:33:38.170Z,2.72
2022-11-15T20:36:10.184Z,4.00
2022-11-15T20:38:37.396Z,4.22
2022-11-15T20:41:04.317Z,12.15
2022-11-15T20:43:31.091Z,7.90
2022-11-15T20:45:58.243Z,8.00
2022-11-15T20:48:25.072Z,6.22
2022-11-15T20:50:51.692Z,11.05
2022-11-15T20:53:19.617Z,8.32
2022-11-15T20:55:48.831Z,5.30
2022-11-15T20:58:17.020Z,10.27
2022-11-15T21:00:45.401Z,5.78
2022-11-15T21:03:13.433Z,4.40
2022-11-15T21:05:42.641Z,6.93
2022-11-15T21:08:10.613Z,5.63
2022-11-15T21:10:56.313Z,6.78
2022-11-15T21:18:57.389Z,4.85
2022-11-15T21:21:23.992Z,6.15
2022-11-15T21:23:51.029Z,4.95
2022-11-15T21:26:17.702Z,6.47
2022-11-15T21:28:44.232Z,6.78
2022-11-15T21:31:10.814Z,5.60
2022-11-15T21:33:38.378Z,4.63
2022-11-15T21:36:07.338Z,4.88
2022-11-15T21:38:34.148Z,5.28
2022-11-15T21:41:03.168Z,6.72
2022-11-15T21:43:29.726Z,5.18
2022-11-15T21:45:57.334Z,4.97
2022-11-15T21:48:23.893Z,3.63
2022-11-15T21:51:01.768Z,6.47
2022-11-15T21:53:29.064Z,4.85
2022-11-15T21:55:55.670Z,5.28
2022-11-15T21:58:22.468Z,4.50
2022-11-15T22:01:08.755Z,5.78
2022-11-15T22:03:35.904Z,5.03
2022-11-15T22:06:03.658Z,3.85
2022-11-15T22:08:32.394Z,3.70
2022-11-15T22:10:59.365Z,6.40
2022-11-15T22:13:26.492Z,7.75
2022-11-15T22:15:54.085Z,5.18
2022-11-15T22:18:26.215Z,4.57
2022-11-15T22:20:55.123Z,6.50
2022-11-15T22:23:21.997Z,3.95
2022-11-15T22:25:49.223Z,5.60
2022-11-15T22:28:16.037Z,4.22
2022-11-15T22:30:48.126Z,5.50
2022-11-15T22:33:16.353Z,5.35
2022-11-15T22:35:42.909Z,4.80
2022-11-15T22:38:10.187Z,4.63
2022-11-15T22:40:37.077Z,6.03
2022-11-15T22:43:04.924Z,3.97
2022-11-15T22:45:31.959Z,4.65
2022-11-15T22:47:59.429Z,7.75
2022-11-15T22:50:26.218Z,5.75
2022-11-15T22:52:53.966Z,5.88
2022-11-15T22:55:21.047Z,6.40
2022-11-15T22:57:47.926Z,4.75
2022-11-15T23:00:16.352Z,4.55
2022-11-15T23:02:43.744Z,5.78
2022-11-15T23:05:12.479Z,4.45
2022-11-15T23:07:39.216Z,4.40
2022-11-15T23:10:25.052Z,5.32
2022-11-15T23:13:10.387Z,4.65
2022-11-15T23:15:55.832Z,4.68
2022-11-15T23:20:49.018Z,3.30
2022-11-15T23:23:15.764Z,3.80
2022-11-15T23:25:42.358Z,3.90
2022-11-15T23:28:08.949Z,5.18
2022-11-15T23:30:55.172Z,3.55
2022-11-15T23:33:40.929Z,4.10
2022-11-15T23:36:07.701Z,3.08
2022-11-15T23:38:37.636Z,3.08
2022-11-15T23:41:05.571Z,4.10
2022-11-15T23:43:32.542Z,5.63
2022-11-15T23:46:01.387Z,3.22
2022-11-15T23:48:28.073Z,4.43
2022-11-15T23:50:54.685Z,11.52
2022-11-15T23:53:21.574Z,3.95
2022-11-15T23:56:00.866Z,4.07
2022-11-15T23:58:27.950Z,3.45
